sensor_id;sensor_type;location;lat;lon;timestamp;P1;durP1;ratioP1;P2;durP2;ratioP2
64684;SDS011;51109;47.414;18.954;2023-03-09T00:01:27;4.18;;;1.55;;
64684;SDS011;51109;47.414;18.954;2023-03-09T00:03:54;3.78;;;2.10;;
64684;SDS011;51109;47.414;18.954;2023-03-09T00:06:21;2.72;;;1.45;;
64684;SDS011;51109;47.414;18.954;2023-03-09T00:08:47;3.05;;;2.13;;
64684;SDS011;51109;47.414;18.954;2023-03-09T00:11:13;3.28;;;1.83;;
64684;SDS011;51109;47.414;18.954;2023-03-09T00:13:40;3.42;;;1.77;;
64684;SDS011;51109;47.414;18.954;2023-03-09T00:16:13;2.63;;;1.70;;
64684;SDS011;51109;47.414;18.954;2023-03-09T00:18:40;2.53;;;1.77;;
64684;SDS011;51109;47.414;18.954;2023-03-09T00:21:06;7.25;;;1.55;;
64684;SDS011;51109;47.414;18.954;2023-03-09T00:23:32;2.08;;;1.20;;
64684;SDS011;51109;47.414;18.954;2023-03-09T00:26:05;3.42;;;1.40;;
64684;SDS011;51109;47.414;18.954;2023-03-09T00:28:32;5.47;;;1.85;;
64684;SDS011;51109;47.414;18.954;2023-03-09T00:30:59;1.95;;;1.75;;
64684;SDS011;51109;47.414;18.954;2023-03-09T00:33:26;5.18;;;2.03;;
64684;SDS011;51109;47.414;18.954;2023-03-09T00:35:52;2.65;;;1.55;;
64684;SDS011;51109;47.414;18.954;2023-03-09T00:38:18;3.35;;;2.25;;
64684;SDS011;51109;47.414;18.954;2023-03-09T00:40:44;3.53;;;1.60;;
64684;SDS011;51109;47.414;18.954;2023-03-09T00:43:10;2.83;;;1.70;;
64684;SDS011;51109;47.414;18.954;2023-03-09T00:45:36;3.63;;;1.48;;
64684;SDS011;51109;47.414;18.954;2023-03-09T00:48:02;1.85;;;1.65;;
64684;SDS011;51109;47.414;18.954;2023-03-09T00:50:28;3.25;;;1.88;;
64684;SDS011;51109;47.414;18.954;2023-03-09T00:52:54;3.40;;;1.38;;
64684;SDS011;51109;47.414;18.954;2023-03-09T00:55:19;1.80;;;1.30;;
64684;SDS011;51109;47.414;18.954;2023-03-09T00:57:45;3.33;;;1.77;;
64684;SDS011;51109;47.414;18.954;2023-03-09T01:00:11;5.20;;;1.63;;
64684;SDS011;51109;47.414;18.954;2023-03-09T01:02:38;2.47;;;1.70;;
64684;SDS011;51109;47.414;18.954;2023-03-09T01:05:04;2.05;;;1.23;;
64684;SDS011;51109;47.414;18.954;2023-03-09T01:07:30;3.22;;;1.38;;
64684;SDS011;51109;47.414;18.954;2023-03-09T01:09:58;2.03;;;1.20;;
64684;SDS011;51109;47.414;18.954;2023-03-09T01:12:24;2.20;;;1.60;;
64684;SDS011;51109;47.414;18.954;2023-03-09T01:14:53;2.70;;;1.40;;
64684;SDS011;51109;47.414;18.954;2023-03-09T01:17:19;1.85;;;1.75;;
64684;SDS011;51109;47.414;18.954;2023-03-09T01:19:45;2.10;;;1.58;;
64684;SDS011;51109;47.414;18.954;2023-03-09T01:22:11;1.58;;;1.45;;
64684;SDS011;51109;47.414;18.954;2023-03-09T01:24:37;2.40;;;1.27;;
64684;SDS011;51109;47.414;18.954;2023-03-09T01:27:03;3.22;;;1.60;;
64684;SDS011;51109;47.414;18.954;2023-03-09T01:29:29;4.40;;;1.75;;
64684;SDS011;51109;47.414;18.954;2023-03-09T01:31:55;3.08;;;1.85;;
64684;SDS011;51109;47.414;18.954;2023-03-09T01:34:21;4.25;;;1.85;;
64684;SDS011;51109;47.414;18.954;2023-03-09T01:36:47;3.45;;;1.48;;
64684;SDS011;51109;47.414;18.954;2023-03-09T01:39:13;2.10;;;1.67;;
64684;SDS011;51109;47.414;18.954;2023-03-09T01:41:39;3.22;;;1.98;;
64684;SDS011;51109;47.414;18.954;2023-03-09T01:44:05;2.47;;;1.58;;
64684;SDS011;51109;47.414;18.954;2023-03-09T01:46:50;2.92;;;1.77;;
64684;SDS011;51109;47.414;18.954;2023-03-09T01:51:58;2.65;;;1.65;;
64684;SDS011;51109;47.414;18.954;2023-03-09T01:54:30;1.77;;;1.45;;
64684;SDS011;51109;47.414;18.954;2023-03-09T01:57:23;3.38;;;1.75;;
64684;SDS011;51109;47.414;18.954;2023-03-09T01:59:56;2.05;;;1.83;;
64684;SDS011;51109;47.414;18.954;2023-03-09T02:02:28;1.87;;;1.70;;
64684;SDS011;51109;47.414;18.954;2023-03-09T02:04:57;1.58;;;1.38;;
64684;SDS011;51109;47.414;18.954;2023-03-09T02:07:28;7.15;;;2.00;;
64684;SDS011;51109;47.414;18.954;2023-03-09T02:10:32;3.78;;;1.90;;
64684;SDS011;51109;47.414;18.954;2023-03-09T02:13:15;2.67;;;1.75;;
64684;SDS011;51109;47.414;18.954;2023-03-09T02:15:43;2.03;;;1.60;;
64684;SDS011;51109;47.414;18.954;2023-03-09T02:18:09;2.60;;;1.98;;
64684;SDS011;51109;47.414;18.954;2023-03-09T02:23:40;3.95;;;1.73;;
64684;SDS011;51109;47.414;18.954;2023-03-09T02:26:22;2.88;;;1.70;;
64684;SDS011;51109;47.414;18.954;2023-03-09T02:28:55;4.72;;;1.83;;
64684;SDS011;51109;47.414;18.954;2023-03-09T02:31:20;2.88;;;1.85;;
64684;SDS011;51109;47.414;18.954;2023-03-09T02:33:46;2.22;;;1.95;;
64684;SDS011;51109;47.414;18.954;2023-03-09T02:36:13;2.88;;;1.85;;
64684;SDS011;51109;47.414;18.954;2023-03-09T02:38:39;2.97;;;1.80;;
64684;SDS011;51109;47.414;18.954;2023-03-09T02:41:05;3.50;;;1.65;;
64684;SDS011;51109;47.414;18.954;2023-03-09T02:43:36;5.75;;;2.03;;
64684;SDS011;51109;47.414;18.954;2023-03-09T02:46:05;4.90;;;2.22;;
64684;SDS011;51109;47.414;18.954;2023-03-09T02:48:31;4.45;;;1.98;;
64684;SDS011;51109;47.414;18.954;2023-03-09T02:50:57;6.03;;;2.33;;
64684;SDS011;51109;47.414;18.954;2023-03-09T02:53:23;6.32;;;2.47;;
64684;SDS011;51109;47.414;18.954;2023-03-09T02:55:49;2.63;;;1.75;;
64684;SDS011;51109;47.414;18.954;2023-03-09T02:58:15;11.05;;;2.30;;
64684;SDS011;51109;47.414;18.954;2023-03-09T03:00:41;2.53;;;1.58;;
64684;SDS011;51109;47.414;18.954;2023-03-09T03:03:07;7.00;;;2.08;;
64684;SDS011;51109;47.414;18.954;2023-03-09T03:05:33;2.33;;;2.13;;
64684;SDS011;51109;47.414;18.954;2023-03-09T03:07:59;3.20;;;2.13;;
64684;SDS011;51109;47.414;18.954;2023-03-09T03:10:25;3.97;;;1.83;;
64684;SDS011;51109;47.414;18.954;2023-03-09T03:12:51;4.75;;;2.53;;
64684;SDS011;51109;47.414;18.954;2023-03-09T03:15:17;3.38;;;1.92;;
64684;SDS011;51109;47.414;18.954;2023-03-09T03:17:43;4.82;;;2.50;;
64684;SDS011;51109;47.414;18.954;2023-03-09T03:20:09;4.03;;;2.17;;
64684;SDS011;51109;47.414;18.954;2023-03-09T03:22:38;1.65;;;1.55;;
64684;SDS011;51109;47.414;18.954;2023-03-09T03:25:04;4.82;;;1.90;;
64684;SDS011;51109;47.414;18.954;2023-03-09T03:27:31;1.50;;;1.38;;
64684;SDS011;51109;47.414;18.954;2023-03-09T03:29:57;1.35;;;1.25;;
64684;SDS011;51109;47.414;18.954;2023-03-09T03:32:24;2.97;;;1.83;;
64684;SDS011;51109;47.414;18.954;2023-03-09T03:34:50;6.00;;;1.90;;
64684;SDS011;51109;47.414;18.954;2023-03-09T03:37:16;2.67;;;1.70;;
64684;SDS011;51109;47.414;18.954;2023-03-09T03:39:42;4.70;;;2.10;;
64684;SDS011;51109;47.414;18.954;2023-03-09T03:42:08;2.40;;;2.20;;
64684;SDS011;51109;47.414;18.954;2023-03-09T03:44:34;2.63;;;1.75;;
64684;SDS011;51109;47.414;18.954;2023-03-09T03:46:59;2.08;;;1.50;;
64684;SDS011;51109;47.414;18.954;2023-03-09T03:49:26;3.00;;;1.73;;
64684;SDS011;51109;47.414;18.954;2023-03-09T03:51:52;2.20;;;1.85;;
64684;SDS011;51109;47.414;18.954;2023-03-09T03:54:18;4.30;;;1.83;;
64684;SDS011;51109;47.414;18.954;2023-03-09T03:56:44;2.83;;;2.15;;
64684;SDS011;51109;47.414;18.954;2023-03-09T03:59:10;7.07;;;2.55;;
64684;SDS011;51109;47.414;18.954;2023-03-09T04:01:36;7.70;;;3.67;;
64684;SDS011;51109;47.414;18.954;2023-03-09T04:04:03;4.03;;;2.92;;
64684;SDS011;51109;47.414;18.954;2023-03-09T04:06:29;3.05;;;2.10;;
64684;SDS011;51109;47.414;18.954;2023-03-09T04:08:57;2.80;;;2.15;;
64684;SDS011;51109;47.414;18.954;2023-03-09T04:11:24;8.82;;;2.72;;
64684;SDS011;51109;47.414;18.954;2023-03-09T04:13:50;2.65;;;2.05;;
64684;SDS011;51109;47.414;18.954;2023-03-09T04:16:16;11.82;;;3.90;;
64684;SDS011;51109;47.414;18.954;2023-03-09T04:18:42;19.58;;;4.13;;
64684;SDS011;51109;47.414;18.954;2023-03-09T04:21:08;13.80;;;3.90;;
64684;SDS011;51109;47.414;18.954;2023-03-09T04:23:34;25.30;;;7.60;;
64684;SDS011;51109;47.414;18.954;2023-03-09T04:26:01;32.28;;;5.80;;
64684;SDS011;51109;47.414;18.954;2023-03-09T04:28:29;14.23;;;4.82;;
64684;SDS011;51109;47.414;18.954;2023-03-09T04:30:55;14.20;;;5.18;;
64684;SDS011;51109;47.414;18.954;2023-03-09T04:33:21;10.55;;;3.28;;
64684;SDS011;51109;47.414;18.954;2023-03-09T04:35:47;9.95;;;3.38;;
64684;SDS011;51109;47.414;18.954;2023-03-09T04:38:13;8.48;;;2.97;;
64684;SDS011;51109;47.414;18.954;2023-03-09T04:40:39;9.45;;;3.10;;
64684;SDS011;51109;47.414;18.954;2023-03-09T04:43:06;3.63;;;2.42;;
64684;SDS011;51109;47.414;18.954;2023-03-09T04:45:32;6.57;;;2.85;;
64684;SDS011;51109;47.414;18.954;2023-03-09T04:47:58;6.22;;;3.75;;
64684;SDS011;51109;47.414;18.954;2023-03-09T04:50:24;6.85;;;3.25;;
64684;SDS011;51109;47.414;18.954;2023-03-09T04:52:51;6.53;;;3.17;;
64684;SDS011;51109;47.414;18.954;2023-03-09T04:55:17;13.18;;;5.47;;
64684;SDS011;51109;47.414;18.954;2023-03-09T04:57:43;9.88;;;3.47;;
64684;SDS011;51109;47.414;18.954;2023-03-09T05:00:10;15.70;;;5.72;;
64684;SDS011;51109;47.414;18.954;2023-03-09T05:02:40;9.65;;;4.05;;
64684;SDS011;51109;47.414;18.954;2023-03-09T05:05:07;8.32;;;3.90;;
64684;SDS011;51109;47.414;18.954;2023-03-09T05:07:34;6.45;;;3.58;;
64684;SDS011;51109;47.414;18.954;2023-03-09T05:10:00;7.15;;;3.95;;
64684;SDS011;51109;47.414;18.954;2023-03-09T05:12:26;6.10;;;3.85;;
64684;SDS011;51109;47.414;18.954;2023-03-09T05:14:58;10.98;;;3.08;;
64684;SDS011;51109;47.414;18.954;2023-03-09T05:17:25;6.05;;;3.65;;
64684;SDS011;51109;47.414;18.954;2023-03-09T05:19:51;6.20;;;2.70;;
64684;SDS011;51109;47.414;18.954;2023-03-09T05:22:17;5.55;;;3.03;;
64684;SDS011;51109;47.414;18.954;2023-03-09T05:24:43;3.97;;;3.30;;
64684;SDS011;51109;47.414;18.954;2023-03-09T05:27:09;8.02;;;3.28;;
64684;SDS011;51109;47.414;18.954;2023-03-09T05:29:37;5.80;;;3.33;;
64684;SDS011;51109;47.414;18.954;2023-03-09T05:32:04;5.72;;;3.40;;
64684;SDS011;51109;47.414;18.954;2023-03-09T05:34:30;7.93;;;4.68;;
64684;SDS011;51109;47.414;18.954;2023-03-09T05:36:56;5.53;;;3.53;;
64684;SDS011;51109;47.414;18.954;2023-03-09T05:39:22;4.32;;;2.35;;
64684;SDS011;51109;47.414;18.954;2023-03-09T05:41:49;5.20;;;2.85;;
64684;SDS011;51109;47.414;18.954;2023-03-09T05:44:15;7.13;;;3.38;;
64684;SDS011;51109;47.414;18.954;2023-03-09T05:46:40;7.60;;;3.92;;
64684;SDS011;51109;47.414;18.954;2023-03-09T05:49:06;7.82;;;3.33;;
64684;SDS011;51109;47.414;18.954;2023-03-09T05:51:32;5.60;;;3.15;;
64684;SDS011;51109;47.414;18.954;2023-03-09T05:53:58;5.38;;;3.38;;
64684;SDS011;51109;47.414;18.954;2023-03-09T05:56:24;6.05;;;3.05;;
64684;SDS011;51109;47.414;18.954;2023-03-09T05:58:50;8.98;;;2.80;;
64684;SDS011;51109;47.414;18.954;2023-03-09T06:01:17;4.35;;;2.78;;
64684;SDS011;51109;47.414;18.954;2023-03-09T06:03:47;6.40;;;3.38;;
64684;SDS011;51109;47.414;18.954;2023-03-09T06:06:14;9.35;;;3.35;;
64684;SDS011;51109;47.414;18.954;2023-03-09T06:08:41;7.65;;;3.80;;
64684;SDS011;51109;47.414;18.954;2023-03-09T06:11:07;5.85;;;3.53;;
64684;SDS011;51109;47.414;18.954;2023-03-09T06:13:34;11.40;;;3.63;;
64684;SDS011;51109;47.414;18.954;2023-03-09T06:16:03;6.63;;;3.45;;
64684;SDS011;51109;47.414;18.954;2023-03-09T06:18:30;4.80;;;3.38;;
64684;SDS011;51109;47.414;18.954;2023-03-09T06:21:03;6.57;;;3.97;;
64684;SDS011;51109;47.414;18.954;2023-03-09T06:23:31;5.82;;;4.00;;
64684;SDS011;51109;47.414;18.954;2023-03-09T06:26:01;6.78;;;3.13;;
64684;SDS011;51109;47.414;18.954;2023-03-09T06:28:29;6.53;;;2.78;;
64684;SDS011;51109;47.414;18.954;2023-03-09T06:30:54;9.55;;;2.95;;
64684;SDS011;51109;47.414;18.954;2023-03-09T06:33:20;5.22;;;3.22;;
64684;SDS011;51109;47.414;18.954;2023-03-09T06:35:47;4.10;;;2.60;;
64684;SDS011;51109;47.414;18.954;2023-03-09T06:38:12;3.17;;;2.50;;
64684;SDS011;51109;47.414;18.954;2023-03-09T06:40:38;7.55;;;4.00;;
64684;SDS011;51109;47.414;18.954;2023-03-09T06:43:04;7.55;;;3.60;;
64684;SDS011;51109;47.414;18.954;2023-03-09T06:45:31;4.88;;;2.58;;
64684;SDS011;51109;47.414;18.954;2023-03-09T06:47:57;3.10;;;2.03;;
64684;SDS011;51109;47.414;18.954;2023-03-09T06:50:24;4.70;;;2.22;;
64684;SDS011;51109;47.414;18.954;2023-03-09T06:52:51;2.58;;;2.38;;
64684;SDS011;51109;47.414;18.954;2023-03-09T06:55:17;5.78;;;3.00;;
64684;SDS011;51109;47.414;18.954;2023-03-09T06:57:44;3.28;;;2.13;;
64684;SDS011;51109;47.414;18.954;2023-03-09T07:00:10;6.32;;;2.55;;
64684;SDS011;51109;47.414;18.954;2023-03-09T07:02:37;6.50;;;2.45;;
64684;SDS011;51109;47.414;18.954;2023-03-09T07:05:05;4.43;;;2.22;;
64684;SDS011;51109;47.414;18.954;2023-03-09T07:07:32;9.63;;;3.03;;
64684;SDS011;51109;47.414;18.954;2023-03-09T07:09:58;5.60;;;2.58;;
64684;SDS011;51109;47.414;18.954;2023-03-09T07:12:24;6.30;;;2.70;;
64684;SDS011;51109;47.414;18.954;2023-03-09T07:14:50;5.55;;;2.72;;
64684;SDS011;51109;47.414;18.954;2023-03-09T07:17:15;4.85;;;2.55;;
64684;SDS011;51109;47.414;18.954;2023-03-09T07:19:42;5.90;;;2.40;;
64684;SDS011;51109;47.414;18.954;2023-03-09T07:22:08;5.15;;;2.70;;
64684;SDS011;51109;47.414;18.954;2023-03-09T07:24:35;6.50;;;2.38;;
64684;SDS011;51109;47.414;18.954;2023-03-09T07:27:01;7.15;;;2.28;;
64684;SDS011;51109;47.414;18.954;2023-03-09T07:29:28;6.75;;;2.80;;
64684;SDS011;51109;47.414;18.954;2023-03-09T07:31:54;5.82;;;2.95;;
64684;SDS011;51109;47.414;18.954;2023-03-09T07:34:20;3.10;;;2.17;;
64684;SDS011;51109;47.414;18.954;2023-03-09T07:36:46;1.85;;;1.58;;
64684;SDS011;51109;47.414;18.954;2023-03-09T07:39:13;1.60;;;1.50;;
64684;SDS011;51109;47.414;18.954;2023-03-09T07:41:40;6.35;;;2.33;;
64684;SDS011;51109;47.414;18.954;2023-03-09T07:44:07;2.78;;;2.03;;
64684;SDS011;51109;47.414;18.954;2023-03-09T07:46:33;2.15;;;1.92;;
64684;SDS011;51109;47.414;18.954;2023-03-09T07:48:59;6.35;;;2.33;;
64684;SDS011;51109;47.414;18.954;2023-03-09T07:51:25;5.13;;;1.98;;
64684;SDS011;51109;47.414;18.954;2023-03-09T07:53:51;8.55;;;1.73;;
64684;SDS011;51109;47.414;18.954;2023-03-09T07:56:17;3.45;;;1.73;;
64684;SDS011;51109;47.414;18.954;2023-03-09T07:58:44;3.17;;;2.03;;
64684;SDS011;51109;47.414;18.954;2023-03-09T08:01:12;6.38;;;2.50;;
64684;SDS011;51109;47.414;18.954;2023-03-09T08:03:40;3.70;;;2.17;;
64684;SDS011;51109;47.414;18.954;2023-03-09T08:06:07;3.75;;;2.35;;
64684;SDS011;51109;47.414;18.954;2023-03-09T08:08:34;3.35;;;2.13;;
64684;SDS011;51109;47.414;18.954;2023-03-09T08:11:01;2.63;;;1.80;;
64684;SDS011;51109;47.414;18.954;2023-03-09T08:13:28;4.55;;;2.30;;
64684;SDS011;51109;47.414;18.954;2023-03-09T08:15:54;7.93;;;2.15;;
64684;SDS011;51109;47.414;18.954;2023-03-09T08:18:24;2.88;;;2.03;;
64684;SDS011;51109;47.414;18.954;2023-03-09T08:20:49;3.83;;;2.40;;
64684;SDS011;51109;47.414;18.954;2023-03-09T08:23:15;5.90;;;1.73;;
64684;SDS011;51109;47.414;18.954;2023-03-09T08:25:41;7.28;;;3.08;;
64684;SDS011;51109;47.414;18.954;2023-03-09T08:28:09;7.93;;;3.00;;
64684;SDS011;51109;47.414;18.954;2023-03-09T08:30:38;15.60;;;4.25;;
64684;SDS011;51109;47.414;18.954;2023-03-09T08:33:05;18.50;;;4.97;;
64684;SDS011;51109;47.414;18.954;2023-03-09T08:35:31;11.07;;;3.22;;
64684;SDS011;51109;47.414;18.954;2023-03-09T08:37:58;7.00;;;3.33;;
64684;SDS011;51109;47.414;18.954;2023-03-09T08:40:25;24.10;;;7.95;;
64684;SDS011;51109;47.414;18.954;2023-03-09T08:42:51;10.00;;;3.78;;
64684;SDS011;51109;47.414;18.954;2023-03-09T08:45:17;23.00;;;7.57;;
64684;SDS011;51109;47.414;18.954;2023-03-09T08:47:43;13.85;;;4.85;;
64684;SDS011;51109;47.414;18.954;2023-03-09T08:50:09;8.00;;;2.22;;
64684;SDS011;51109;47.414;18.954;2023-03-09T08:52:36;3.58;;;1.58;;
64684;SDS011;51109;47.414;18.954;2023-03-09T08:55:05;4.68;;;2.10;;
64684;SDS011;51109;47.414;18.954;2023-03-09T08:57:32;3.72;;;1.30;;
64684;SDS011;51109;47.414;18.954;2023-03-09T08:59:58;3.80;;;1.73;;
64684;SDS011;51109;47.414;18.954;2023-03-09T09:02:24;3.53;;;1.67;;
64684;SDS011;51109;47.414;18.954;2023-03-09T09:04:51;5.60;;;2.53;;
64684;SDS011;51109;47.414;18.954;2023-03-09T09:07:17;5.68;;;2.97;;
64684;SDS011;51109;47.414;18.954;2023-03-09T09:09:43;2.45;;;1.80;;
64684;SDS011;51109;47.414;18.954;2023-03-09T09:12:10;1.60;;;1.50;;
64684;SDS011;51109;47.414;18.954;2023-03-09T09:14:36;2.05;;;1.55;;
64684;SDS011;51109;47.414;18.954;2023-03-09T09:17:04;3.20;;;2.35;;
64684;SDS011;51109;47.414;18.954;2023-03-09T09:19:32;2.83;;;1.70;;
64684;SDS011;51109;47.414;18.954;2023-03-09T09:21:58;5.50;;;2.33;;
64684;SDS011;51109;47.414;18.954;2023-03-09T09:24:25;2.33;;;1.40;;
64684;SDS011;51109;47.414;18.954;2023-03-09T09:26:54;6.07;;;2.75;;
64684;SDS011;51109;47.414;18.954;2023-03-09T09:29:21;6.15;;;1.33;;
64684;SDS011;51109;47.414;18.954;2023-03-09T09:31:47;5.43;;;2.72;;
64684;SDS011;51109;47.414;18.954;2023-03-09T09:34:14;4.43;;;2.08;;
64684;SDS011;51109;47.414;18.954;2023-03-09T09:36:42;2.03;;;1.45;;
64684;SDS011;51109;47.414;18.954;2023-03-09T09:39:11;3.80;;;2.50;;
64684;SDS011;51109;47.414;18.954;2023-03-09T09:41:47;2.90;;;1.70;;
64684;SDS011;51109;47.414;18.954;2023-03-09T09:44:26;3.45;;;1.25;;
64684;SDS011;51109;47.414;18.954;2023-03-09T09:46:58;3.03;;;1.63;;
64684;SDS011;51109;47.414;18.954;2023-03-09T09:49:28;1.63;;;1.33;;
64684;SDS011;51109;47.414;18.954;2023-03-09T09:57:42;1.65;;;1.30;;
64684;SDS011;51109;47.414;18.954;2023-03-09T10:00:23;1.08;;;0.98;;
64684;SDS011;51109;47.414;18.954;2023-03-09T10:11:36;5.90;;;1.52;;
64684;SDS011;51109;47.414;18.954;2023-03-09T10:17:28;2.33;;;1.40;;
64684;SDS011;51109;47.414;18.954;2023-03-09T10:22:39;1.98;;;0.75;;
64684;SDS011;51109;47.414;18.954;2023-03-09T10:25:10;7.47;;;2.35;;
64684;SDS011;51109;47.414;18.954;2023-03-09T10:36:17;3.25;;;1.08;;
64684;SDS011;51109;47.414;18.954;2023-03-09T10:38:58;1.00;;;0.90;;
64684;SDS011;51109;47.414;18.954;2023-03-09T10:41:30;2.60;;;1.30;;
64684;SDS011;51109;47.414;18.954;2023-03-09T10:43:56;3.85;;;1.85;;
64684;SDS011;51109;47.414;18.954;2023-03-09T10:46:25;5.90;;;2.33;;
64684;SDS011;51109;47.414;18.954;2023-03-09T10:51:41;0.63;;;0.60;;
64684;SDS011;51109;47.414;18.954;2023-03-09T17:38:14;1.63;;;1.17;;
64684;SDS011;51109;47.414;18.954;2023-03-09T17:40:44;3.15;;;1.25;;
64684;SDS011;51109;47.414;18.954;2023-03-09T17:43:11;0.70;;;0.70;;
64684;SDS011;51109;47.414;18.954;2023-03-09T17:45:38;3.50;;;1.05;;
64684;SDS011;51109;47.414;18.954;2023-03-09T17:48:05;2.42;;;1.05;;
64684;SDS011;51109;47.414;18.954;2023-03-09T17:57:53;1.60;;;1.50;;
64684;SDS011;51109;47.414;18.954;2023-03-09T18:00:19;2.42;;;1.80;;
64684;SDS011;51109;47.414;18.954;2023-03-09T18:02:46;1.40;;;1.27;;
64684;SDS011;51109;47.414;18.954;2023-03-09T18:05:11;1.70;;;1.30;;
64684;SDS011;51109;47.414;18.954;2023-03-09T18:07:38;2.67;;;1.15;;
64684;SDS011;51109;47.414;18.954;2023-03-09T18:10:04;1.20;;;0.98;;
64684;SDS011;51109;47.414;18.954;2023-03-09T18:12:31;6.15;;;2.00;;
64684;SDS011;51109;47.414;18.954;2023-03-09T18:14:57;6.57;;;1.75;;
64684;SDS011;51109;47.414;18.954;2023-03-09T18:17:22;2.95;;;1.45;;
64684;SDS011;51109;47.414;18.954;2023-03-09T18:19:50;2.80;;;1.80;;
64684;SDS011;51109;47.414;18.954;2023-03-09T18:22:16;1.90;;;1.58;;
64684;SDS011;51109;47.414;18.954;2023-03-09T18:24:42;3.38;;;1.40;;
64684;SDS011;51109;47.414;18.954;2023-03-09T18:27:10;5.05;;;2.17;;
64684;SDS011;51109;47.414;18.954;2023-03-09T18:29:36;3.25;;;1.73;;
64684;SDS011;51109;47.414;18.954;2023-03-09T18:32:02;4.25;;;2.50;;
64684;SDS011;51109;47.414;18.954;2023-03-09T18:34:30;3.33;;;1.55;;
64684;SDS011;51109;47.414;18.954;2023-03-09T18:36:56;1.83;;;1.30;;
64684;SDS011;51109;47.414;18.954;2023-03-09T18:39:22;0.77;;;0.75;;
64684;SDS011;51109;47.414;18.954;2023-03-09T18:41:48;3.10;;;1.60;;
64684;SDS011;51109;47.414;18.954;2023-03-09T18:44:15;3.75;;;2.03;;
64684;SDS011;51109;47.414;18.954;2023-03-09T18:46:41;1.48;;;1.20;;
64684;SDS011;51109;47.414;18.954;2023-03-09T18:49:08;2.72;;;2.20;;
64684;SDS011;51109;47.414;18.954;2023-03-09T18:51:35;5.43;;;2.55;;
64684;SDS011;51109;47.414;18.954;2023-03-09T18:54:01;5.85;;;2.55;;
64684;SDS011;51109;47.414;18.954;2023-03-09T18:56:26;3.85;;;1.90;;
64684;SDS011;51109;47.414;18.954;2023-03-09T18:58:53;7.38;;;1.95;;
64684;SDS011;51109;47.414;18.954;2023-03-09T19:01:19;3.58;;;2.05;;
64684;SDS011;51109;47.414;18.954;2023-03-09T19:03:46;6.82;;;2.42;;
64684;SDS011;51109;47.414;18.954;2023-03-09T19:06:17;4.72;;;2.50;;
64684;SDS011;51109;47.414;18.954;2023-03-09T19:08:45;5.82;;;2.28;;
64684;SDS011;51109;47.414;18.954;2023-03-09T19:11:13;6.13;;;2.55;;
64684;SDS011;51109;47.414;18.954;2023-03-09T19:13:43;3.40;;;2.70;;
64684;SDS011;51109;47.414;18.954;2023-03-09T19:16:10;3.20;;;1.67;;
64684;SDS011;51109;47.414;18.954;2023-03-09T19:18:39;3.67;;;1.90;;
64684;SDS011;51109;47.414;18.954;2023-03-09T19:21:06;5.07;;;1.92;;
64684;SDS011;51109;47.414;18.954;2023-03-09T19:23:32;2.55;;;1.75;;
64684;SDS011;51109;47.414;18.954;2023-03-09T19:25:59;3.80;;;2.00;;
64684;SDS011;51109;47.414;18.954;2023-03-09T19:28:25;2.55;;;1.75;;
64684;SDS011;51109;47.414;18.954;2023-03-09T19:30:53;2.30;;;1.40;;
64684;SDS011;51109;47.414;18.954;2023-03-09T19:33:26;2.13;;;1.38;;
64684;SDS011;51109;47.414;18.954;2023-03-09T19:35:56;6.57;;;2.83;;
64684;SDS011;51109;47.414;18.954;2023-03-09T19:38:25;4.35;;;1.92;;
64684;SDS011;51109;47.414;18.954;2023-03-09T19:40:59;3.25;;;2.25;;
64684;SDS011;51109;47.414;18.954;2023-03-09T19:43:26;3.33;;;2.00;;
64684;SDS011;51109;47.414;18.954;2023-03-09T19:45:57;2.00;;;1.30;;
64684;SDS011;51109;47.414;18.954;2023-03-09T19:48:26;3.45;;;1.70;;
64684;SDS011;51109;47.414;18.954;2023-03-09T19:51:03;2.00;;;1.17;;
64684;SDS011;51109;47.414;18.954;2023-03-09T19:53:37;1.95;;;1.27;;
64684;SDS011;51109;47.414;18.954;2023-03-09T19:56:07;1.48;;;0.88;;
64684;SDS011;51109;47.414;18.954;2023-03-09T19:58:35;3.85;;;1.20;;
64684;SDS011;51109;47.414;18.954;2023-03-09T20:01:08;1.02;;;0.93;;
64684;SDS011;51109;47.414;18.954;2023-03-09T20:03:38;1.45;;;1.17;;
64684;SDS011;51109;47.414;18.954;2023-03-09T20:06:05;0.52;;;0.52;;
64684;SDS011;51109;47.414;18.954;2023-03-09T20:08:31;1.65;;;0.90;;
64684;SDS011;51109;47.414;18.954;2023-03-09T20:10:58;1.65;;;0.63;;
64684;SDS011;51109;47.414;18.954;2023-03-09T20:13:27;0.85;;;0.85;;
64684;SDS011;51109;47.414;18.954;2023-03-09T20:15:56;1.02;;;0.90;;
64684;SDS011;51109;47.414;18.954;2023-03-09T20:18:27;1.60;;;1.15;;
64684;SDS011;51109;47.414;18.954;2023-03-09T20:20:53;2.25;;;1.08;;
64684;SDS011;51109;47.414;18.954;2023-03-09T20:23:20;1.67;;;0.70;;
64684;SDS011;51109;47.414;18.954;2023-03-09T20:25:46;1.40;;;1.30;;
64684;SDS011;51109;47.414;18.954;2023-03-09T20:28:12;2.88;;;1.20;;
64684;SDS011;51109;47.414;18.954;2023-03-09T20:30:41;5.93;;;1.77;;
64684;SDS011;51109;47.414;18.954;2023-03-09T20:33:07;2.63;;;1.05;;
64684;SDS011;51109;47.414;18.954;2023-03-09T20:35:33;2.22;;;1.70;;
64684;SDS011;51109;47.414;18.954;2023-03-09T20:37:59;3.05;;;1.52;;
64684;SDS011;51109;47.414;18.954;2023-03-09T20:40:26;4.28;;;1.38;;
64684;SDS011;51109;47.414;18.954;2023-03-09T20:42:53;2.17;;;1.10;;
64684;SDS011;51109;47.414;18.954;2023-03-09T20:45:19;2.17;;;1.05;;
64684;SDS011;51109;47.414;18.954;2023-03-09T20:47:45;1.10;;;0.90;;
64684;SDS011;51109;47.414;18.954;2023-03-09T20:50:13;2.75;;;0.98;;
64684;SDS011;51109;47.414;18.954;2023-03-09T20:52:40;1.73;;;1.15;;
64684;SDS011;51109;47.414;18.954;2023-03-09T20:55:07;2.78;;;1.10;;
64684;SDS011;51109;47.414;18.954;2023-03-09T20:57:33;1.73;;;1.10;;
64684;SDS011;51109;47.414;18.954;2023-03-09T21:00:00;3.40;;;1.63;;
64684;SDS011;51109;47.414;18.954;2023-03-09T21:02:26;4.40;;;1.30;;
64684;SDS011;51109;47.414;18.954;2023-03-09T21:04:53;2.63;;;1.27;;
64684;SDS011;51109;47.414;18.954;2023-03-09T21:07:19;3.55;;;1.52;;
64684;SDS011;51109;47.414;18.954;2023-03-09T21:09:45;1.20;;;1.10;;
64684;SDS011;51109;47.414;18.954;2023-03-09T21:12:11;3.83;;;1.50;;
64684;SDS011;51109;47.414;18.954;2023-03-09T21:14:37;2.20;;;1.38;;
64684;SDS011;51109;47.414;18.954;2023-03-09T21:17:04;3.60;;;1.35;;
64684;SDS011;51109;47.414;18.954;2023-03-09T21:19:31;5.60;;;1.38;;
64684;SDS011;51109;47.414;18.954;2023-03-09T21:22:01;1.65;;;1.27;;
64684;SDS011;51109;47.414;18.954;2023-03-09T21:24:29;2.85;;;1.50;;
64684;SDS011;51109;47.414;18.954;2023-03-09T21:26:54;4.10;;;1.45;;
64684;SDS011;51109;47.414;18.954;2023-03-09T21:29:21;1.77;;;1.30;;
64684;SDS011;51109;47.414;18.954;2023-03-09T21:31:47;3.03;;;1.75;;
64684;SDS011;51109;47.414;18.954;2023-03-09T21:34:13;1.70;;;1.38;;
64684;SDS011;51109;47.414;18.954;2023-03-09T21:36:39;1.48;;;1.13;;
64684;SDS011;51109;47.414;18.954;2023-03-09T21:39:05;1.77;;;1.40;;
64684;SDS011;51109;47.414;18.954;2023-03-09T21:41:32;2.90;;;1.10;;
64684;SDS011;51109;47.414;18.954;2023-03-09T21:43:58;4.63;;;1.33;;
64684;SDS011;51109;47.414;18.954;2023-03-09T21:46:24;1.85;;;1.60;;
64684;SDS011;51109;47.414;18.954;2023-03-09T21:48:51;7.25;;;1.60;;
64684;SDS011;51109;47.414;18.954;2023-03-09T21:51:19;2.60;;;1.45;;
64684;SDS011;51109;47.414;18.954;2023-03-09T21:53:49;2.05;;;1.00;;
64684;SDS011;51109;47.414;18.954;2023-03-09T21:56:16;5.07;;;1.60;;
64684;SDS011;51109;47.414;18.954;2023-03-09T21:58:44;2.83;;;1.60;;
64684;SDS011;51109;47.414;18.954;2023-03-09T22:01:14;3.33;;;1.80;;
64684;SDS011;51109;47.414;18.954;2023-03-09T22:03:42;3.22;;;1.75;;